Time;durP1;ratioP1;P1;durP2;ratioP2;P2;SDS_P1;SDS_P2;PMS_P1;PMS_P2;Temp;Humidity;BMP_temperature;BMP_pressure;BME280_temperature;BME280_humidity;BME280_pressure;Samples;Min_cycle;Max_cycle;Signal;HPM_P1;HPM_P2
2023/02/18 00:00:25;;;;;;;41.77;19.17;;;;;;;;;;4955447;28;20184;-76
2023/02/18 00:02:50;;;;;;;49.83;21.17;;;;;;;;;;4957490;28;20195;-75
2023/02/18 00:05:15;;;;;;;46.50;18.97;;;;;;;;;;4944735;28;20185;-76
2023/02/18 00:07:41;;;;;;;45.30;19.30;;;;;;;;;;4951195;28;20307;-76
2023/02/18 00:10:07;;;;;;;41.03;17.83;;;;;;;;;;4952245;28;20287;-76
2023/02/18 00:12:32;;;;;;;46.27;19.80;;;;;;;;;;4951169;28;20189;-75
2023/02/18 00:14:58;;;;;;;45.37;19.13;;;;;;;;;;4948827;28;20240;-75
2023/02/18 00:17:23;;;;;;;46.47;19.73;;;;;;;;;;4947980;28;20188;-76
2023/02/18 00:19:48;;;;;;;40.00;17.00;;;;;;;;;;4954027;28;20196;-75
2023/02/18 00:22:14;;;;;;;35.20;16.80;;;;;;;;;;4954058;28;20188;-76
2023/02/18 00:24:39;;;;;;;36.27;17.30;;;;;;;;;;4952498;28;20738;-75
2023/02/18 00:27:04;;;;;;;38.00;17.23;;;;;;;;;;4958230;28;20213;-76
2023/02/18 00:29:29;;;;;;;34.30;16.93;;;;;;;;;;4954024;28;20204;-75
2023/02/18 00:31:55;;;;;;;35.57;16.43;;;;;;;;;;4953528;28;20934;-77
2023/02/18 00:34:20;;;;;;;34.73;14.60;;;;;;;;;;4954974;28;20309;-75
2023/02/18 00:36:45;;;;;;;30.90;15.93;;;;;;;;;;4956337;28;20169;-74
2023/02/18 00:39:11;;;;;;;42.60;16.80;;;;;;;;;;4952673;28;20200;-74
2023/02/18 00:41:37;;;;;;;26.50;14.03;;;;;;;;;;4951046;28;20206;-75
2023/02/18 00:44:03;;;;;;;27.87;13.03;;;;;;;;;;4947557;28;20600;-75
2023/02/18 00:46:28;;;;;;;25.93;11.37;;;;;;;;;;4939404;28;20335;-75
2023/02/18 00:48:54;;;;;;;24.37;12.37;;;;;;;;;;4942279;28;20505;-77
2023/02/18 00:51:19;;;;;;;23.37;12.30;;;;;;;;;;4938357;28;20275;-75
2023/02/18 00:53:44;;;;;;;27.27;13.23;;;;;;;;;;4971017;28;20177;-75
2023/02/18 00:56:10;;;;;;;26.93;12.60;;;;;;;;;;4951213;28;20738;-75
2023/02/18 00:58:35;;;;;;;28.77;13.23;;;;;;;;;;4951541;28;20585;-75
2023/02/18 01:01:01;;;;;;;22.20;11.03;;;;;;;;;;4949593;28;20184;-75
2023/02/18 01:03:26;;;;;;;30.13;12.37;;;;;;;;;;4952304;28;20989;-76
2023/02/18 01:05:51;;;;;;;25.60;12.53;;;;;;;;;;4951628;28;20189;-75
2023/02/18 01:08:17;;;;;;;31.23;13.43;;;;;;;;;;4944678;28;20217;-76
2023/02/18 01:10:43;;;;;;;29.83;13.53;;;;;;;;;;4939322;28;20180;-76
2023/02/18 01:13:10;;;;;;;35.17;15.97;;;;;;;;;;4941624;28;20183;-77
2023/02/18 01:15:35;;;;;;;27.90;13.67;;;;;;;;;;4950076;28;20208;-73
2023/02/18 01:18:01;;;;;;;33.33;14.67;;;;;;;;;;4947233;28;20643;-75
2023/02/18 01:20:26;;;;;;;35.43;15.20;;;;;;;;;;4937628;28;20177;-75
2023/02/18 01:22:51;;;;;;;33.97;15.13;;;;;;;;;;4937606;28;20193;-74
2023/02/18 01:25:16;;;;;;;35.33;16.03;;;;;;;;;;4938436;28;20767;-75
2023/02/18 01:27:42;;;;;;;36.63;15.40;;;;;;;;;;4943491;28;20197;-76
2023/02/18 01:30:08;;;;;;;40.73;15.83;;;;;;;;;;4953592;28;20184;-76
2023/02/18 01:32:33;;;;;;;42.07;16.27;;;;;;;;;;4953751;28;20650;-76
2023/02/18 01:35:02;;;;;;;40.83;17.10;;;;;;;;;;4954548;28;20178;-76
2023/02/18 01:37:28;;;;;;;42.03;17.73;;;;;;;;;;4955442;28;20183;-76
2023/02/18 01:39:53;;;;;;;43.80;20.97;;;;;;;;;;4954983;28;20193;-76
2023/02/18 01:42:28;;;;;;;47.03;20.53;;;;;;;;;;4954093;28;20655;-77
2023/02/18 01:44:53;;;;;;;45.93;20.20;;;;;;;;;;4955592;28;20610;-77
2023/02/18 01:47:19;;;;;;;44.60;19.77;;;;;;;;;;4939413;28;20296;-76
2023/02/18 01:49:46;;;;;;;42.53;20.17;;;;;;;;;;4943072;28;20201;-76
2023/02/18 01:52:16;;;;;;;45.83;20.23;;;;;;;;;;4954458;28;20192;-77
2023/02/18 01:54:48;;;;;;;47.17;20.80;;;;;;;;;;4942938;28;20173;-76
2023/02/18 01:57:33;;;;;;;48.97;20.67;;;;;;;;;;4939129;28;20260;-76
2023/02/18 02:00:02;;;;;;;40.53;18.43;;;;;;;;;;4954201;28;20205;-76
2023/02/18 02:02:28;;;;;;;40.67;17.57;;;;;;;;;;4945484;28;20185;-76
2023/02/18 02:04:54;;;;;;;43.47;19.37;;;;;;;;;;4955968;28;20188;-76
2023/02/18 02:07:20;;;;;;;44.63;19.57;;;;;;;;;;4946078;28;20208;-76
2023/02/18 02:09:47;;;;;;;42.77;19.70;;;;;;;;;;4945670;28;20209;-76
2023/02/18 02:12:21;;;;;;;42.13;19.43;;;;;;;;;;4953769;28;20208;-76
2023/02/18 02:14:54;;;;;;;46.50;20.60;;;;;;;;;;4939685;28;20264;-76
2023/02/18 02:17:31;;;;;;;47.37;20.27;;;;;;;;;;4946881;28;20249;-76
2023/02/18 02:20:15;;;;;;;44.00;19.30;;;;;;;;;;4935162;29;20205;-76
2023/02/18 02:23:12;;;;;;;43.13;18.80;;;;;;;;;;4938663;28;20177;-76
2023/02/18 02:25:43;;;;;;;45.30;19.50;;;;;;;;;;4965173;28;20189;-76
2023/02/18 02:28:18;;;;;;;50.13;19.90;;;;;;;;;;4967035;28;20208;-75
2023/02/18 02:30:55;;;;;;;47.30;18.70;;;;;;;;;;4940484;29;20180;-75
2023/02/18 02:33:28;;;;;;;47.03;20.07;;;;;;;;;;4938882;28;20187;-75
2023/02/18 02:35:57;;;;;;;42.33;18.03;;;;;;;;;;4947317;28;20186;-75
2023/02/18 02:38:31;;;;;;;45.30;18.33;;;;;;;;;;4940849;28;20691;-75
2023/02/18 02:41:02;;;;;;;40.53;18.20;;;;;;;;;;4945060;28;20186;-75
2023/02/18 02:43:28;;;;;;;43.37;17.20;;;;;;;;;;4937090;29;20182;-75
2023/02/18 02:45:53;;;;;;;47.93;19.00;;;;;;;;;;4939292;28;20544;-77
2023/02/18 02:48:33;;;;;;;42.40;17.80;;;;;;;;;;4950273;28;20209;-74
2023/02/18 02:51:07;;;;;;;41.63;16.77;;;;;;;;;;4950440;28;20185;-76
2023/02/18 02:53:34;;;;;;;39.23;17.33;;;;;;;;;;4946906;28;20201;-77
2023/02/18 02:55:59;;;;;;;38.43;16.43;;;;;;;;;;4938937;28;20225;-75
2023/02/18 02:58:24;;;;;;;42.53;18.57;;;;;;;;;;4947315;28;20224;-76
2023/02/18 03:00:53;;;;;;;44.00;17.27;;;;;;;;;;4949503;28;20189;-76
2023/02/18 03:03:33;;;;;;;46.20;19.13;;;;;;;;;;4952907;28;20596;-76
2023/02/18 03:05:59;;;;;;;53.20;18.70;;;;;;;;;;4942629;28;20189;-76
2023/02/18 03:08:33;;;;;;;38.17;14.37;;;;;;;;;;4956934;28;20207;-77
2023/02/18 03:11:06;;;;;;;37.23;15.90;;;;;;;;;;4941207;28;20176;-75
2023/02/18 03:13:43;;;;;;;30.93;11.73;;;;;;;;;;4953706;28;20722;-77
2023/02/18 03:16:11;;;;;;;27.40;11.70;;;;;;;;;;4948931;28;20660;-77
2023/02/18 03:18:36;;;;;;;26.20;11.70;;;;;;;;;;4959759;28;20204;-74
2023/02/18 03:21:10;;;;;;;22.30;9.67;;;;;;;;;;4941272;28;20190;-77
2023/02/18 03:23:42;;;;;;;21.40;8.87;;;;;;;;;;4952076;28;20639;-75
2023/02/18 03:26:08;;;;;;;26.90;10.33;;;;;;;;;;4941486;28;20656;-77
2023/02/18 03:28:34;;;;;;;17.07;7.80;;;;;;;;;;4953611;28;20200;-77
2023/02/18 03:31:03;;;;;;;19.43;7.93;;;;;;;;;;4947567;28;20188;-76
2023/02/18 03:33:32;;;;;;;16.27;7.63;;;;;;;;;;4948505;28;20642;-76
2023/02/18 03:35:57;;;;;;;18.30;7.63;;;;;;;;;;4951887;28;20185;-77
2023/02/18 03:38:25;;;;;;;17.30;7.07;;;;;;;;;;4941717;28;20213;-76
2023/02/18 03:40:51;;;;;;;15.50;7.40;;;;;;;;;;4937907;28;20649;-77
2023/02/18 03:43:16;;;;;;;15.20;7.43;;;;;;;;;;4947572;28;20231;-77
2023/02/18 03:45:42;;;;;;;13.50;7.27;;;;;;;;;;4944213;28;20267;-76
2023/02/18 03:48:07;;;;;;;15.70;7.47;;;;;;;;;;4940335;28;20299;-76
2023/02/18 03:50:32;;;;;;;13.33;6.63;;;;;;;;;;4957239;28;20181;-77
2023/02/18 03:52:57;;;;;;;14.63;7.00;;;;;;;;;;4947585;28;20565;-76
2023/02/18 03:55:22;;;;;;;12.30;6.20;;;;;;;;;;4945926;28;20196;-76
2023/02/18 03:57:48;;;;;;;13.73;7.00;;;;;;;;;;4954753;28;20201;-76
2023/02/18 04:00:13;;;;;;;12.23;6.80;;;;;;;;;;4952986;28;20276;-75
2023/02/18 04:02:39;;;;;;;13.27;6.87;;;;;;;;;;4954985;28;20223;-76
2023/02/18 04:05:04;;;;;;;15.47;8.20;;;;;;;;;;4949119;29;20295;-76
2023/02/18 04:07:29;;;;;;;17.43;8.50;;;;;;;;;;4956158;28;20757;-76
2023/02/18 04:09:55;;;;;;;15.53;8.80;;;;;;;;;;4952452;28;20244;-78
2023/02/18 04:12:20;;;;;;;16.97;8.60;;;;;;;;;;4955711;28;20181;-79
2023/02/18 04:14:45;;;;;;;15.80;7.07;;;;;;;;;;4952307;28;20181;-78
2023/02/18 04:17:10;;;;;;;16.37;8.30;;;;;;;;;;4955682;28;20248;-79
2023/02/18 04:19:35;;;;;;;16.63;8.43;;;;;;;;;;4956063;29;20207;-78
2023/02/18 04:22:01;;;;;;;12.53;6.67;;;;;;;;;;4950646;28;20626;-78
2023/02/18 04:24:26;;;;;;;13.70;7.00;;;;;;;;;;4957326;29;20651;-79
2023/02/18 04:26:51;;;;;;;15.80;6.87;;;;;;;;;;4953401;28;20761;-78
2023/02/18 04:29:16;;;;;;;12.50;6.27;;;;;;;;;;4950687;28;20629;-79
2023/02/18 04:31:42;;;;;;;11.80;6.97;;;;;;;;;;4955403;28;20690;-78
2023/02/18 04:34:07;;;;;;;11.37;5.70;;;;;;;;;;4958172;28;20268;-79
2023/02/18 04:36:32;;;;;;;10.37;5.93;;;;;;;;;;4948253;28;20249;-79
2023/02/18 04:38:58;;;;;;;10.03;5.77;;;;;;;;;;4958977;28;20201;-78
2023/02/18 04:41:23;;;;;;;11.43;5.63;;;;;;;;;;4945276;28;20188;-77
2023/02/18 04:43:48;;;;;;;10.53;5.60;;;;;;;;;;4945070;29;20182;-78
2023/02/18 04:46:14;;;;;;;9.73;5.57;;;;;;;;;;4949878;28;20224;-79
2023/02/18 04:48:39;;;;;;;12.70;5.77;;;;;;;;;;4953335;29;20197;-79
2023/02/18 04:51:04;;;;;;;12.17;6.33;;;;;;;;;;4957357;28;20189;-78
2023/02/18 04:53:30;;;;;;;9.70;5.67;;;;;;;;;;4957200;28;20177;-79
2023/02/18 04:55:55;;;;;;;10.43;5.57;;;;;;;;;;4947514;28;20656;-79
2023/02/18 04:58:21;;;;;;;10.40;5.53;;;;;;;;;;4945396;28;20212;-78
2023/02/18 05:00:46;;;;;;;12.47;5.50;;;;;;;;;;4952456;28;20187;-79
2023/02/18 05:03:12;;;;;;;9.37;5.00;;;;;;;;;;4950748;28;20187;-79
2023/02/18 05:05:37;;;;;;;10.50;4.97;;;;;;;;;;4953235;28;20669;-79
2023/02/18 05:08:02;;;;;;;10.70;6.07;;;;;;;;;;4945646;28;20273;-77
2023/02/18 05:10:28;;;;;;;15.57;6.30;;;;;;;;;;4943778;28;20272;-76
2023/02/18 05:12:53;;;;;;;13.30;7.93;;;;;;;;;;4949887;28;20687;-76
2023/02/18 05:15:18;;;;;;;16.20;8.47;;;;;;;;;;4952829;28;20185;-77
2023/02/18 05:17:43;;;;;;;20.87;8.93;;;;;;;;;;4949790;28;20188;-77
2023/02/18 05:20:09;;;;;;;20.30;8.50;;;;;;;;;;4957664;28;21502;-76
2023/02/18 05:22:34;;;;;;;16.00;9.40;;;;;;;;;;4947270;28;20303;-77
2023/02/18 05:24:59;;;;;;;20.30;9.83;;;;;;;;;;4949180;28;20185;-76
2023/02/18 05:27:24;;;;;;;16.67;8.20;;;;;;;;;;4945714;28;20299;-78
2023/02/18 05:29:49;;;;;;;18.50;9.47;;;;;;;;;;4948042;28;20208;-77
2023/02/18 05:32:15;;;;;;;13.20;7.07;;;;;;;;;;4947309;28;20181;-77
2023/02/18 05:34:40;;;;;;;14.50;7.67;;;;;;;;;;4951726;28;20245;-77
2023/02/18 05:37:05;;;;;;;12.27;6.13;;;;;;;;;;4958912;28;20187;-78
2023/02/18 05:39:30;;;;;;;11.27;6.67;;;;;;;;;;4947993;28;20404;-78
2023/02/18 05:41:56;;;;;;;13.93;7.30;;;;;;;;;;4946506;28;20205;-77
2023/02/18 05:44:30;;;;;;;13.97;8.03;;;;;;;;;;4950726;28;20181;-78
2023/02/18 05:46:59;;;;;;;16.30;8.13;;;;;;;;;;4951904;28;20209;-77
2023/02/18 05:49:25;;;;;;;21.40;9.53;;;;;;;;;;4949834;28;20810;-77
2023/02/18 05:51:50;;;;;;;18.33;8.87;;;;;;;;;;4949857;28;20261;-77
2023/02/18 05:54:15;;;;;;;18.60;9.10;;;;;;;;;;4945914;28;20189;-77
2023/02/18 05:56:41;;;;;;;22.80;10.60;;;;;;;;;;4950175;28;20248;-80
2023/02/18 05:59:06;;;;;;;22.47;10.10;;;;;;;;;;4951518;28;20333;-79
2023/02/18 06:01:31;;;;;;;19.93;10.83;;;;;;;;;;4952357;28;20186;-77
2023/02/18 06:03:56;;;;;;;20.77;10.60;;;;;;;;;;4947547;28;20666;-78
2023/02/18 06:06:22;;;;;;;21.13;11.40;;;;;;;;;;4964090;28;20273;-78
2023/02/18 06:08:47;;;;;;;26.90;12.53;;;;;;;;;;4945639;28;20260;-79
2023/02/18 06:11:12;;;;;;;22.83;10.57;;;;;;;;;;4948898;28;20188;-78
2023/02/18 06:13:37;;;;;;;19.70;9.83;;;;;;;;;;4955152;28;20176;-79
2023/02/18 06:16:03;;;;;;;18.10;9.00;;;;;;;;;;4955924;28;20177;-78
2023/02/18 06:18:28;;;;;;;26.07;10.03;;;;;;;;;;4946967;28;20202;-79
2023/02/18 06:20:53;;;;;;;18.70;9.63;;;;;;;;;;4948344;28;20249;-79
2023/02/18 06:23:18;;;;;;;17.30;9.57;;;;;;;;;;4946305;28;20655;-78
2023/02/18 06:25:44;;;;;;;25.43;11.77;;;;;;;;;;4945330;29;20336;-78
2023/02/18 06:28:09;;;;;;;27.03;9.90;;;;;;;;;;4953277;28;20216;-79
2023/02/18 06:30:34;;;;;;;18.37;10.30;;;;;;;;;;4954642;28;20655;-79
2023/02/18 06:33:03;;;;;;;23.20;9.87;;;;;;;;;;4953638;28;20185;-78
2023/02/18 06:35:28;;;;;;;21.73;9.70;;;;;;;;;;4946805;29;20170;-76
2023/02/18 06:37:53;;;;;;;31.63;10.93;;;;;;;;;;4944984;28;20706;-79
2023/02/18 06:40:18;;;;;;;23.87;11.40;;;;;;;;;;4949561;28;20572;-79
2023/02/18 06:42:43;;;;;;;27.07;11.17;;;;;;;;;;4957133;28;20193;-79
2023/02/18 06:45:09;;;;;;;31.90;11.90;;;;;;;;;;4953684;28;20558;-79
2023/02/18 06:47:34;;;;;;;29.03;11.27;;;;;;;;;;4947751;28;20201;-77
2023/02/18 06:49:59;;;;;;;28.57;10.93;;;;;;;;;;4942712;28;20249;-77
2023/02/18 06:52:24;;;;;;;30.97;12.20;;;;;;;;;;4947829;28;20186;-77
2023/02/18 06:54:50;;;;;;;28.03;12.73;;;;;;;;;;4955388;28;20189;-77
2023/02/18 06:57:15;;;;;;;25.27;11.37;;;;;;;;;;4956642;28;20185;-77
2023/02/18 06:59:40;;;;;;;23.10;10.60;;;;;;;;;;4959566;28;20205;-77
2023/02/18 07:02:05;;;;;;;24.67;9.37;;;;;;;;;;4941641;28;20275;-76
2023/02/18 07:04:30;;;;;;;24.37;10.17;;;;;;;;;;4954140;28;20172;-76
2023/02/18 07:06:56;;;;;;;21.43;9.20;;;;;;;;;;4950047;28;20205;-76
2023/02/18 07:09:21;;;;;;;23.60;10.03;;;;;;;;;;4957415;28;20208;-76
2023/02/18 07:11:46;;;;;;;22.20;10.70;;;;;;;;;;4962260;28;20232;-76
2023/02/18 07:14:11;;;;;;;26.83;9.90;;;;;;;;;;4954207;28;20174;-76
2023/02/18 07:16:36;;;;;;;27.10;10.70;;;;;;;;;;4954218;28;20553;-76
2023/02/18 07:19:02;;;;;;;28.07;11.43;;;;;;;;;;4948733;28;20209;-75
2023/02/18 07:21:27;;;;;;;23.60;8.90;;;;;;;;;;4952259;28;20184;-77
2023/02/18 07:23:52;;;;;;;31.10;11.90;;;;;;;;;;4941248;28;20182;-76
2023/02/18 07:26:17;;;;;;;20.40;7.90;;;;;;;;;;4951797;28;20570;-76
2023/02/18 07:28:42;;;;;;;23.33;8.60;;;;;;;;;;4951470;28;20678;-76
2023/02/18 07:31:08;;;;;;;20.03;7.83;;;;;;;;;;4954290;28;20173;-76
2023/02/18 07:33:33;;;;;;;24.27;8.63;;;;;;;;;;4950050;28;20201;-75
2023/02/18 07:36:00;;;;;;;15.97;7.87;;;;;;;;;;4946909;28;20173;-77
2023/02/18 07:38:26;;;;;;;17.47;7.27;;;;;;;;;;4945121;28;20336;-74
2023/02/18 07:40:52;;;;;;;29.83;6.97;;;;;;;;;;4946294;28;20584;-76
2023/02/18 07:43:17;;;;;;;25.57;7.47;;;;;;;;;;4954432;28;20177;-75
2023/02/18 07:45:42;;;;;;;19.00;6.60;;;;;;;;;;4954206;29;20560;-75
2023/02/18 07:48:07;;;;;;;23.77;7.20;;;;;;;;;;4951889;29;20204;-76
2023/02/18 07:50:35;;;;;;;18.13;6.03;;;;;;;;;;4951739;29;20197;-75
2023/02/18 07:53:01;;;;;;;18.77;4.70;;;;;;;;;;4950250;28;20170;-75
2023/02/18 07:55:47;;;;;;;18.63;5.90;;;;;;;;;;4944321;28;20278;-75
2023/02/18 07:58:12;;;;;;;16.87;3.67;;;;;;;;;;4953679;28;20292;-76
2023/02/18 08:00:37;;;;;;;22.03;4.40;;;;;;;;;;4954668;28;20220;-75
2023/02/18 08:03:02;;;;;;;15.47;3.63;;;;;;;;;;4951420;28;20177;-76
2023/02/18 08:05:28;;;;;;;18.27;4.20;;;;;;;;;;4952746;28;20188;-75
2023/02/18 08:07:53;;;;;;;17.67;4.57;;;;;;;;;;4952857;28;20717;-76
2023/02/18 08:10:18;;;;;;;16.73;3.73;;;;;;;;;;4951826;28;20282;-76
2023/02/18 08:12:43;;;;;;;8.67;2.30;;;;;;;;;;4951978;28;20180;-75
2023/02/18 08:15:09;;;;;;;13.13;2.67;;;;;;;;;;4947131;29;20711;-76
2023/02/18 08:17:34;;;;;;;17.17;4.30;;;;;;;;;;4953568;29;20181;-76
2023/02/18 08:19:59;;;;;;;19.07;3.67;;;;;;;;;;4951992;28;20193;-76
2023/02/18 08:22:24;;;;;;;12.83;3.83;;;;;;;;;;4948055;29;20569;-76
2023/02/18 08:24:50;;;;;;;19.63;3.63;;;;;;;;;;4953049;28;20651;-76
2023/02/18 08:27:15;;;;;;;14.33;3.27;;;;;;;;;;4954471;29;20197;-75
2023/02/18 08:29:40;;;;;;;17.23;4.00;;;;;;;;;;4952237;28;20256;-75
2023/02/18 08:32:05;;;;;;;17.23;3.63;;;;;;;;;;4952890;29;20268;-76
2023/02/18 08:34:30;;;;;;;8.53;2.40;;;;;;;;;;4944536;28;20538;-75
2023/02/18 08:36:56;;;;;;;12.43;2.87;;;;;;;;;;4949953;28;20208;-76
2023/02/18 08:39:21;;;;;;;12.77;3.63;;;;;;;;;;4949654;29;20212;-76
2023/02/18 08:41:46;;;;;;;10.93;2.10;;;;;;;;;;4952876;29;20235;-76
2023/02/18 08:44:12;;;;;;;10.77;3.20;;;;;;;;;;4955859;28;20635;-76
2023/02/18 08:46:37;;;;;;;9.67;2.57;;;;;;;;;;4954798;28;20208;-77
2023/02/18 08:49:03;;;;;;;10.47;2.83;;;;;;;;;;4955933;29;20223;-77
2023/02/18 08:51:28;;;;;;;8.03;2.43;;;;;;;;;;4955193;28;20181;-76
2023/02/18 08:53:54;;;;;;;12.63;2.73;;;;;;;;;;4953828;28;20268;-76
2023/02/18 08:56:19;;;;;;;13.33;2.53;;;;;;;;;;4954836;29;20292;-75
2023/02/18 08:58:44;;;;;;;12.77;2.50;;;;;;;;;;4955671;28;20197;-75
2023/02/18 09:01:10;;;;;;;11.30;3.00;;;;;;;;;;4953999;28;20178;-76
2023/02/18 09:03:35;;;;;;;12.23;3.40;;;;;;;;;;4949679;28;20616;-76
2023/02/18 09:06:01;;;;;;;8.30;2.80;;;;;;;;;;4956395;29;20181;-76
2023/02/18 09:08:27;;;;;;;17.60;2.60;;;;;;;;;;4958243;29;20300;-75
2023/02/18 09:10:56;;;;;;;8.40;2.53;;;;;;;;;;4958099;29;20675;-76
2023/02/18 09:13:21;;;;;;;9.97;2.60;;;;;;;;;;4956512;28;20180;-75
2023/02/18 09:15:54;;;;;;;8.73;2.37;;;;;;;;;;4953087;28;20185;-75
2023/02/18 09:18:19;;;;;;;14.67;5.17;;;;;;;;;;4953550;28;20274;-77
2023/02/18 09:20:44;;;;;;;7.03;2.63;;;;;;;;;;4955808;29;20185;-76
2023/02/18 09:23:10;;;;;;;10.40;3.67;;;;;;;;;;4948546;29;20193;-76
2023/02/18 09:25:38;;;;;;;8.67;2.27;;;;;;;;;;4958545;28;20181;-76
2023/02/18 09:28:03;;;;;;;14.63;2.53;;;;;;;;;;4958460;29;20233;-75
2023/02/18 09:30:28;;;;;;;23.60;4.43;;;;;;;;;;4957879;29;20223;-76
2023/02/18 09:32:53;;;;;;;10.07;3.43;;;;;;;;;;4958132;28;20209;-75
2023/02/18 09:35:19;;;;;;;14.33;3.20;;;;;;;;;;4948024;28;20202;-76
2023/02/18 09:37:44;;;;;;;16.07;2.97;;;;;;;;;;4957057;28;20180;-76
2023/02/18 09:40:20;;;;;;;17.73;3.27;;;;;;;;;;4952706;28;20173;-75
2023/02/18 09:42:45;;;;;;;11.73;2.57;;;;;;;;;;4953457;28;20176;-77
2023/02/18 09:45:12;;;;;;;15.77;3.40;;;;;;;;;;4956045;28;20263;-76
2023/02/18 09:47:39;;;;;;;15.20;4.63;;;;;;;;;;4955128;28;20291;-76
2023/02/18 09:50:17;;;;;;;13.60;3.10;;;;;;;;;;4955725;28;20205;-76
2023/02/18 09:52:43;;;;;;;14.57;3.53;;;;;;;;;;4956619;28;20208;-77
2023/02/18 09:55:24;;;;;;;13.20;3.20;;;;;;;;;;4947413;28;20196;-76
2023/02/18 09:57:53;;;;;;;16.53;4.63;;;;;;;;;;4952484;28;20182;-76
2023/02/18 10:00:35;;;;;;;13.00;3.53;;;;;;;;;;4955147;29;20181;-77
2023/02/18 10:03:01;;;;;;;14.80;4.83;;;;;;;;;;4951781;28;20181;-76
2023/02/18 10:05:28;;;;;;;8.80;4.13;;;;;;;;;;4939262;29;20237;-76
2023/02/18 10:07:57;;;;;;;12.03;4.13;;;;;;;;;;4952169;28;20208;-76
2023/02/18 10:10:39;;;;;;;12.80;3.87;;;;;;;;;;4974214;23;20240;-72
2023/02/18 10:13:05;;;;;;;18.80;4.17;;;;;;;;;;4973376;28;20554;-73
2023/02/18 10:15:31;;;;;;;13.73;3.53;;;;;;;;;;4970416;28;20180;-72
2023/02/18 10:17:57;;;;;;;9.13;3.50;;;;;;;;;;4972502;28;20180;-73
2023/02/18 10:20:24;;;;;;;12.23;4.23;;;;;;;;;;4969586;28;20205;-73
2023/02/18 10:22:49;;;;;;;13.67;3.37;;;;;;;;;;4971375;28;20172;-72
2023/02/18 10:25:19;;;;;;;10.67;2.90;;;;;;;;;;4969383;28;20705;-73
2023/02/18 10:27:46;;;;;;;12.40;3.47;;;;;;;;;;4968843;28;20203;-72
2023/02/18 10:30:14;;;;;;;14.63;3.87;;;;;;;;;;4973470;28;20232;-72
2023/02/18 10:32:41;;;;;;;12.87;3.83;;;;;;;;;;4973347;28;20585;-73
2023/02/18 10:35:13;;;;;;;11.60;3.40;;;;;;;;;;4971315;28;20183;-72
2023/02/18 10:37:53;;;;;;;16.70;4.83;;;;;;;;;;4972224;28;20180;-73
2023/02/18 10:40:38;;;;;;;18.83;3.07;;;;;;;;;;4972530;28;20188;-72
2023/02/18 10:43:22;;;;;;;11.60;3.30;;;;;;;;;;4964054;28;20307;-72
2023/02/18 10:45:47;;;;;;;12.80;3.03;;;;;;;;;;4971032;28;20540;-74
2023/02/18 10:48:12;;;;;;;13.77;3.87;;;;;;;;;;4968638;28;20207;-73
2023/02/18 10:50:39;;;;;;;15.57;2.72;;;;;;;;;;4973114;28;20180;-72
2023/02/18 10:53:22;;;;;;;17.73;3.42;;;;;;;;;;4970754;28;20180;-73
2023/02/18 10:55:48;;;;;;;8.20;2.60;;;;;;;;;;4968826;28;20650;-73
2023/02/18 10:58:22;;;;;;;12.98;3.67;;;;;;;;;;4973221;28;20183;-73
2023/02/18 11:00:48;;;;;;;12.63;3.97;;;;;;;;;;4971913;28;20177;-73
2023/02/18 11:03:23;;;;;;;8.47;2.47;;;;;;;;;;4972462;28;20180;-73
2023/02/18 11:05:50;;;;;;;11.30;3.20;;;;;;;;;;4968780;28;20196;-72
2023/02/18 11:08:26;;;;;;;13.37;3.27;;;;;;;;;;4970300;28;20242;-73
2023/02/18 11:10:52;;;;;;;13.60;3.20;;;;;;;;;;4971432;28;20188;-73
2023/02/18 11:13:25;;;;;;;9.47;2.50;;;;;;;;;;4972924;28;20258;-73
2023/02/18 11:15:58;;;;;;;8.53;3.70;;;;;;;;;;4966693;28;20173;-73
2023/02/18 11:18:33;;;;;;;9.65;3.08;;;;;;;;;;4972826;28;20180;-72
2023/02/18 11:20:59;;;;;;;15.57;2.77;;;;;;;;;;4970441;28;20196;-71
2023/02/18 11:23:25;;;;;;;8.90;2.88;;;;;;;;;;4970702;28;20183;-71
2023/02/18 11:25:59;;;;;;;13.63;3.28;;;;;;;;;;4973633;28;20187;-72
2023/02/18 11:28:41;;;;;;;8.82;2.97;;;;;;;;;;4974040;28;20768;-72
2023/02/18 11:31:07;;;;;;;16.30;2.95;;;;;;;;;;4971163;28;20271;-71
2023/02/18 11:33:43;;;;;;;12.70;2.40;;;;;;;;;;4969893;28;20589;-74
2023/02/18 11:36:17;;;;;;;12.70;3.13;;;;;;;;;;4969608;28;20175;-74
2023/02/18 11:38:42;;;;;;;10.63;2.85;;;;;;;;;;4968546;28;20199;-72
2023/02/18 11:41:13;;;;;;;13.73;2.75;;;;;;;;;;4970801;28;20180;-72
2023/02/18 11:43:42;;;;;;;12.15;3.05;;;;;;;;;;4959977;28;22248;-72
2023/02/18 11:46:12;;;;;;;8.75;2.97;;;;;;;;;;4969643;28;20188;-71
2023/02/18 11:48:37;;;;;;;9.07;2.97;;;;;;;;;;4967222;28;20676;-71
2023/02/18 11:51:03;;;;;;;11.68;3.03;;;;;;;;;;4968795;28;20216;-72
2023/02/18 11:53:30;;;;;;;7.28;2.67;;;;;;;;;;4970036;28;20195;-71
2023/02/18 11:55:58;;;;;;;6.82;2.00;;;;;;;;;;4969103;28;20256;-72
2023/02/18 11:58:23;;;;;;;11.23;2.65;;;;;;;;;;4966990;28;20192;-72
2023/02/18 12:00:52;;;;;;;11.70;2.55;;;;;;;;;;4966150;28;20220;-71
2023/02/18 12:03:26;;;;;;;8.00;2.47;;;;;;;;;;4971287;28;20275;-72
2023/02/18 12:05:52;;;;;;;8.68;3.25;;;;;;;;;;4971418;28;20300;-72
2023/02/18 12:08:20;;;;;;;8.93;2.25;;;;;;;;;;4973024;28;20241;-72
2023/02/18 12:10:47;;;;;;;10.50;2.58;;;;;;;;;;4972752;28;20191;-72
2023/02/18 12:13:31;;;;;;;8.45;1.98;;;;;;;;;;4978346;28;20195;-72
2023/02/18 12:16:03;;;;;;;7.00;2.85;;;;;;;;;;4973495;28;20662;-71
2023/02/18 12:18:49;;;;;;;7.20;2.05;;;;;;;;;;4974098;28;20195;-72
2023/02/18 12:21:26;;;;;;;11.80;2.65;;;;;;;;;;4976716;28;20204;-72
2023/02/18 12:23:54;;;;;;;4.72;1.63;;;;;;;;;;4974582;28;20210;-73
2023/02/18 12:26:19;;;;;;;9.40;3.13;;;;;;;;;;4972870;28;20212;-72
2023/02/18 12:28:54;;;;;;;9.65;2.08;;;;;;;;;;4972903;28;20243;-73
2023/02/18 12:31:34;;;;;;;8.05;2.53;;;;;;;;;;4975320;28;20314;-72
2023/02/18 12:33:59;;;;;;;7.82;2.78;;;;;;;;;;4975878;28;20172;-73
2023/02/18 12:36:27;;;;;;;9.60;2.30;;;;;;;;;;4974565;28;20234;-73
2023/02/18 12:39:02;;;;;;;8.90;2.20;;;;;;;;;;4977961;28;20303;-73
2023/02/18 12:41:27;;;;;;;10.68;2.30;;;;;;;;;;4984343;28;20172;-74
2023/02/18 12:43:55;;;;;;;7.88;2.40;;;;;;;;;;4969949;28;20199;-73
2023/02/18 12:46:25;;;;;;;11.77;3.42;;;;;;;;;;4974803;28;20185;-71
2023/02/18 12:49:09;;;;;;;11.90;2.70;;;;;;;;;;4973512;28;20203;-71
2023/02/18 12:51:46;;;;;;;11.30;3.08;;;;;;;;;;4973094;28;20702;-72
2023/02/18 12:54:11;;;;;;;6.35;2.13;;;;;;;;;;4974242;28;20664;-71
2023/02/18 12:56:42;;;;;;;16.48;3.38;;;;;;;;;;4974087;28;20192;-72
2023/02/18 12:59:26;;;;;;;9.70;2.40;;;;;;;;;;4973521;28;20721;-73
2023/02/18 13:02:16;;;;;;;11.18;2.53;;;;;;;;;;4966584;28;20663;-71
2023/02/18 13:04:50;;;;;;;9.95;3.30;;;;;;;;;;4960110;28;20193;-72
2023/02/18 13:07:26;;;;;;;8.63;2.38;;;;;;;;;;4956589;28;20199;-72
2023/02/18 13:09:55;;;;;;;13.43;2.58;;;;;;;;;;4958993;28;20306;-72
2023/02/18 13:12:25;;;;;;;8.10;2.17;;;;;;;;;;4959830;28;20189;-72
2023/02/18 13:14:57;;;;;;;8.80;3.58;;;;;;;;;;4958657;28;20196;-72
2023/02/18 13:17:24;;;;;;;4.45;1.92;;;;;;;;;;4959446;28;20566;-73
2023/02/18 13:19:53;;;;;;;7.22;2.08;;;;;;;;;;4956306;28;20231;-72
2023/02/18 13:22:20;;;;;;;6.55;2.85;;;;;;;;;;4964582;28;20199;-73
2023/02/18 13:24:47;;;;;;;8.60;1.85;;;;;;;;;;4974768;28;20680;-73
2023/02/18 13:27:21;;;;;;;8.27;2.33;;;;;;;;;;4976511;28;20204;-73
2023/02/18 13:29:46;;;;;;;9.27;4.13;;;;;;;;;;4969505;28;21001;-73
2023/02/18 13:32:19;;;;;;;7.97;2.10;;;;;;;;;;4963150;28;20235;-74
2023/02/18 13:34:57;;;;;;;6.43;2.42;;;;;;;;;;4971186;28;20251;-73
2023/02/18 13:37:31;;;;;;;9.27;2.88;;;;;;;;;;4962451;28;20196;-74
2023/02/18 13:39:57;;;;;;;9.60;2.53;;;;;;;;;;4956057;28;20192;-73
2023/02/18 13:42:32;;;;;;;8.98;2.63;;;;;;;;;;4959235;28;20602;-73
2023/02/18 13:44:57;;;;;;;6.13;1.90;;;;;;;;;;4967210;28;20525;-74
2023/02/18 13:47:39;;;;;;;6.25;2.00;;;;;;;;;;4958492;28;20292;-73
2023/02/18 13:50:13;;;;;;;9.25;3.90;;;;;;;;;;4960093;28;21042;-74
2023/02/18 13:52:38;;;;;;;7.47;2.75;;;;;;;;;;4955942;28;20278;-73
2023/02/18 13:55:03;;;;;;;9.20;2.45;;;;;;;;;;4956632;28;20607;-73
2023/02/18 13:57:29;;;;;;;8.60;2.00;;;;;;;;;;4958275;28;20239;-72
2023/02/18 13:59:58;;;;;;;6.13;2.22;;;;;;;;;;4962148;28;20474;-72
2023/02/18 14:02:23;;;;;;;6.82;1.55;;;;;;;;;;4960427;28;20268;-71
2023/02/18 14:05:15;;;;;;;10.70;2.90;;;;;;;;;;4957566;28;20582;-72
2023/02/18 14:07:45;;;;;;;6.60;2.20;;;;;;;;;;4958460;28;20217;-72
2023/02/18 14:10:36;;;;;;;8.95;1.98;;;;;;;;;;4956753;28;20221;-72
2023/02/18 14:13:18;;;;;;;8.88;2.35;;;;;;;;;;4956542;28;20192;-72
2023/02/18 14:15:49;;;;;;;9.15;2.90;;;;;;;;;;4957107;28;20230;-72
2023/02/18 14:18:14;;;;;;;7.93;2.13;;;;;;;;;;4961301;28;20749;-72
2023/02/18 14:20:39;;;;;;;8.60;2.17;;;;;;;;;;4961007;28;20303;-72
2023/02/18 14:23:17;;;;;;;7.90;3.50;;;;;;;;;;4956979;28;20184;-72
2023/02/18 14:25:48;;;;;;;4.53;1.88;;;;;;;;;;4956952;28;20196;-73
2023/02/18 14:28:32;;;;;;;8.30;2.50;;;;;;;;;;4958563;28;20202;-73
2023/02/18 14:31:00;;;;;;;6.15;1.88;;;;;;;;;;4959013;28;20187;-73
2023/02/18 14:33:25;;;;;;;11.45;2.28;;;;;;;;;;4969505;28;20188;-73